Time;durP1;ratioP1;P1;durP2;ratioP2;P2;SDS_P1;SDS_P2;PMS_P1;PMS_P2;Temp;Humidity;BMP_temperature;BMP_pressure;BME280_temperature;BME280_humidity;BME280_pressure;Samples;Min_cycle;Max_cycle;Signal;HPM_P1;HPM_P2
2023/09/05 04:22:32;;;;;;;3.38;1.85;;;;;;;17.21;73.82;100622.78;5109926;27;20387;-68
2023/09/05 04:24:58;;;;;;;3.40;2.08;;;;;;;17.20;73.82;100621.13;5108558;28;20448;-67
2023/09/05 04:27:23;;;;;;;4.65;2.55;;;;;;;17.25;73.45;100621.34;5108341;28;20040;-69
2023/09/05 04:29:51;;;;;;;3.38;2.00;;;;;;;17.24;73.68;100625.91;5108142;28;20036;-68
2023/09/05 04:32:26;;;;;;;3.72;2.08;;;;;;;17.28;73.36;100632.53;5108451;28;20093;-68
2023/09/05 04:34:59;;;;;;;3.20;2.08;;;;;;;17.27;73.55;100630.84;5108560;28;20162;-68
2023/09/05 04:37:27;;;;;;;4.03;2.30;;;;;;;17.28;73.56;100634.41;5108316;28;20036;-68
2023/09/05 04:39:56;;;;;;;3.63;2.13;;;;;;;17.25;73.57;100638.31;5107998;28;20040;-68
2023/09/05 04:42:23;;;;;;;2.75;2.10;;;;;;;17.27;73.14;100646.19;5108072;28;20040;-68
2023/09/05 04:44:50;;;;;;;3.97;2.28;;;;;;;17.27;73.14;100644.31;5109501;28;20077;-68
2023/09/05 04:47:24;;;;;;;4.38;2.10;;;;;;;17.29;72.99;100652.19;5109357;28;20027;-67
2023/09/05 04:49:51;;;;;;;2.70;2.00;;;;;;;17.34;72.39;100652.38;5109116;28;20497;-68
2023/09/05 04:52:20;;;;;;;4.78;2.17;;;;;;;17.32;72.60;100647.22;5109323;28;20084;-68
2023/09/05 04:54:46;;;;;;;2.50;1.92;;;;;;;17.31;72.70;100647.44;5109134;28;20077;-67
2023/09/05 04:57:13;;;;;;;5.57;2.58;;;;;;;17.25;72.98;100648.25;5109105;28;20039;-67
2023/09/05 04:59:40;;;;;;;3.17;2.10;;;;;;;17.27;73.04;100646.19;5108952;28;20027;-68
2023/09/05 05:02:05;;;;;;;2.78;2.03;;;;;;;17.31;72.77;100650.94;5107885;28;20028;-69
2023/09/05 05:04:32;;;;;;;2.97;1.70;;;;;;;17.30;73.18;100657.38;5108946;28;20040;-69
2023/09/05 05:06:58;;;;;;;2.85;2.00;;;;;;;17.30;73.16;100657.38;5108191;28;20066;-69
2023/09/05 05:09:23;;;;;;;3.42;1.85;;;;;;;17.27;73.08;100656.94;5108236;28;20074;-69
2023/09/05 05:11:49;;;;;;;2.65;1.95;;;;;;;17.31;73.03;100655.50;5108886;28;20023;-68
2023/09/05 05:14:14;;;;;;;3.88;2.10;;;;;;;17.31;73.25;100660.88;5108847;28;20490;-68
2023/09/05 05:16:43;;;;;;;2.83;2.00;;;;;;;17.32;73.08;100654.47;5108832;28;20502;-69
2023/09/05 05:19:10;;;;;;;2.90;2.00;;;;;;;17.31;73.54;100663.59;5108783;28;20070;-69
2023/09/05 05:21:37;;;;;;;2.92;1.70;;;;;;;17.34;73.43;100665.84;5108424;28;20047;-69
2023/09/05 05:24:04;;;;;;;2.40;1.92;;;;;;;17.36;73.05;100666.50;5108654;28;20036;-68
2023/09/05 05:26:29;;;;;;;2.50;2.03;;;;;;;17.39;73.16;100667.94;5108816;28;20383;-68
2023/09/05 05:28:55;;;;;;;3.22;2.38;;;;;;;17.42;72.76;100676.44;5108585;28;20113;-69
2023/09/05 05:31:22;;;;;;;3.88;2.05;;;;;;;17.43;72.58;100675.38;5108332;28;20040;-68
2023/09/05 05:33:47;;;;;;;2.10;1.83;;;;;;;17.45;72.75;100680.56;5095616;28;20505;-69
2023/09/05 05:36:12;;;;;;;3.13;2.10;;;;;;;17.49;72.03;100681.81;5094810;28;20040;-68
2023/09/05 05:38:38;;;;;;;3.03;1.83;;;;;;;17.49;72.41;100671.88;5094769;28;20035;-69
2023/09/05 05:41:07;;;;;;;2.72;2.05;;;;;;;17.49;72.66;100677.25;5094385;28;20483;-66
2023/09/05 05:43:32;;;;;;;4.38;2.20;;;;;;;17.50;73.44;100673.53;5094764;28;20509;-68
2023/09/05 05:45:58;;;;;;;2.70;1.92;;;;;;;17.55;73.03;100681.81;5094646;28;20043;-66
2023/09/05 05:48:24;;;;;;;3.53;1.73;;;;;;;17.57;72.65;100686.97;5094609;28;20055;-67
2023/09/05 05:50:50;;;;;;;3.25;1.85;;;;;;;17.55;72.95;100687.19;5094400;28;20077;-65
2023/09/05 05:53:15;;;;;;;5.43;2.33;;;;;;;17.58;72.27;100694.03;5094499;28;20072;-66
2023/09/05 05:55:41;;;;;;;2.75;1.90;;;;;;;17.63;73.00;100697.75;5094413;28;20093;-66
2023/09/05 05:58:06;;;;;;;3.25;2.10;;;;;;;17.68;73.04;100694.44;5094255;28;20044;-64
2023/09/05 06:00:32;;;;;;;4.15;2.20;;;;;;;17.72;72.55;100694.88;5094151;28;20039;-65
2023/09/05 06:02:58;;;;;;;2.70;1.90;;;;;;;17.77;72.82;100695.06;5094432;28;20040;-66
2023/09/05 06:05:23;;;;;;;2.83;1.92;;;;;;;17.81;72.58;100690.94;5094232;28;20059;-67
2023/09/05 06:07:49;;;;;;;2.95;2.25;;;;;;;17.84;72.69;100696.72;5094247;28;20036;-66
2023/09/05 06:10:16;;;;;;;3.33;2.28;;;;;;;17.88;72.53;100697.13;5086833;28;20486;-67
2023/09/05 06:12:41;;;;;;;2.65;1.98;;;;;;;17.89;72.79;100688.84;5094283;28;20156;-68
2023/09/05 06:15:07;;;;;;;2.85;2.10;;;;;;;17.95;72.63;100692.56;5094222;28;20036;-66
2023/09/05 06:17:33;;;;;;;3.25;2.00;;;;;;;18.00;72.60;100692.75;5094141;28;20656;-65
2023/09/05 06:19:58;;;;;;;3.08;2.00;;;;;;;18.03;73.00;100692.31;5093783;28;20092;-66
2023/09/05 06:22:24;;;;;;;2.85;2.00;;;;;;;18.08;72.34;100691.69;5093819;28;20075;-66
2023/09/05 06:24:49;;;;;;;3.42;1.90;;;;;;;18.09;72.72;100688.78;5094010;28;20077;-67
2023/09/05 06:27:14;;;;;;;2.42;1.80;;;;;;;18.18;72.53;100695.59;5093866;28;20047;-63
2023/09/05 06:29:40;;;;;;;3.38;2.00;;;;;;;18.23;72.06;100688.75;5093644;28;20483;-65
2023/09/05 06:32:05;;;;;;;3.38;2.05;;;;;;;18.26;72.42;100686.47;5092731;28;20040;-66
2023/09/05 06:34:32;;;;;;;2.25;1.85;;;;;;;18.30;72.02;100682.28;5094257;28;20046;-66
2023/09/05 06:36:57;;;;;;;3.22;1.73;;;;;;;18.37;71.25;100677.69;5093704;28;20036;-66
2023/09/05 06:39:22;;;;;;;2.42;1.80;;;;;;;18.43;71.60;100676.00;5093369;28;20063;-68
2023/09/05 06:41:48;;;;;;;4.07;2.15;;;;;;;18.48;70.77;100673.50;5093777;28;20032;-67
2023/09/05 06:44:15;;;;;;;2.40;1.90;;;;;;;18.55;70.57;100671.59;5091346;28;20043;-66
2023/09/05 06:46:41;;;;;;;2.85;1.90;;;;;;;18.64;69.50;100670.28;5093632;28;20123;-65
2023/09/05 06:49:06;;;;;;;3.65;2.20;;;;;;;18.71;69.50;100667.59;5093469;28;20035;-66
2023/09/05 06:51:32;;;;;;;2.80;2.17;;;;;;;18.76;69.80;100661.56;5093334;28;20035;-64
2023/09/05 06:53:58;;;;;;;3.15;2.00;;;;;;;18.82;69.47;100669.59;5093473;28;20501;-62
2023/09/05 06:56:24;;;;;;;2.50;2.00;;;;;;;18.86;69.01;100665.44;5093379;28;20123;-62
2023/09/05 06:58:50;;;;;;;2.50;2.10;;;;;;;18.90;69.83;100663.13;5093334;28;20035;-63
2023/09/05 07:01:15;;;;;;;2.35;1.73;;;;;;;18.94;69.73;100659.78;5093100;28;20043;-61
2023/09/05 07:03:40;;;;;;;3.53;1.80;;;;;;;18.98;69.62;100657.47;5093328;28;20040;-61
2023/09/05 07:06:06;;;;;;;4.40;2.20;;;;;;;19.09;69.12;100655.94;5093155;28;20065;-61
2023/09/05 07:08:31;;;;;;;2.70;1.92;;;;;;;19.14;68.59;100659.63;5093143;28;20419;-61
2023/09/05 07:10:57;;;;;;;2.38;1.70;;;;;;;19.22;67.28;100661.22;5092975;28;20166;-61
2023/09/05 07:13:23;;;;;;;3.22;1.88;;;;;;;19.29;67.37;100666.56;5086848;28;20047;-61
2023/09/05 07:15:49;;;;;;;3.03;1.73;;;;;;;19.39;67.67;100665.03;5065066;28;20036;-61
2023/09/05 07:18:14;;;;;;;3.83;2.10;;;;;;;19.43;66.54;100663.56;5082676;28;20048;-61
2023/09/05 07:20:40;;;;;;;3.35;1.90;;;;;;;19.51;65.83;100659.75;5080978;28;20041;-61
2023/09/05 07:23:05;;;;;;;2.75;1.70;;;;;;;19.61;64.84;100654.69;5083557;28;20395;-61
2023/09/05 07:25:31;;;;;;;2.38;1.58;;;;;;;19.70;65.03;100653.38;5090712;28;20032;-61
2023/09/05 07:27:57;;;;;;;2.28;1.63;;;;;;;19.84;64.12;100666.75;5092752;28;20043;-61
2023/09/05 07:30:23;;;;;;;4.53;1.80;;;;;;;19.86;64.89;100665.44;5092390;28;20032;-61
2023/09/05 07:32:49;;;;;;;3.00;1.90;;;;;;;19.94;65.37;100664.31;5092653;28;20066;-61
2023/09/05 07:35:14;;;;;;;2.38;1.70;;;;;;;20.01;64.65;100665.91;5091206;28;20044;-61
2023/09/05 07:37:41;;;;;;;3.45;2.42;;;;;;;20.14;63.34;100664.09;5092611;28;20554;-60
2023/09/05 07:40:08;;;;;;;2.33;1.80;;;;;;;20.20;63.19;100661.31;5092413;28;20391;-61
2023/09/05 07:42:33;;;;;;;2.15;1.65;;;;;;;20.26;62.77;100663.13;5092442;28;20281;-61
2023/09/05 07:45:01;;;;;;;2.75;2.00;;;;;;;20.33;63.99;100666.56;5092537;28;20036;-61
2023/09/05 07:47:27;;;;;;;3.00;1.70;;;;;;;20.42;63.76;100672.50;5092361;28;20032;-61
2023/09/05 07:49:52;;;;;;;2.83;1.88;;;;;;;20.46;62.43;100668.31;5092110;28;20043;-61
2023/09/05 07:52:17;;;;;;;3.03;1.85;;;;;;;20.50;63.19;100666.00;5092140;28;20098;-61
2023/09/05 07:54:43;;;;;;;3.63;1.90;;;;;;;20.62;63.36;100661.47;5092335;28;20036;-61
2023/09/05 07:57:08;;;;;;;3.00;1.95;;;;;;;20.66;63.29;100668.03;5092023;28;20398;-61
2023/09/05 07:59:33;;;;;;;2.22;1.67;;;;;;;20.72;63.49;100667.13;5091979;28;20497;-59
2023/09/05 08:02:00;;;;;;;2.92;1.85;;;;;;;20.85;64.12;100677.75;5092009;28;20169;-61
2023/09/05 08:04:26;;;;;;;2.58;1.83;;;;;;;20.90;63.24;100668.97;5092118;28;20036;-61
2023/09/05 08:06:51;;;;;;;2.47;1.80;;;;;;;21.00;63.04;100671.94;5092053;28;20040;-61
2023/09/05 08:09:16;;;;;;;5.65;2.10;;;;;;;21.06;61.44;100676.44;5091812;28;20039;-61
2023/09/05 08:11:42;;;;;;;3.17;2.25;;;;;;;21.16;61.53;100670.44;5092145;28;20036;-61
2023/09/05 08:14:07;;;;;;;3.20;2.00;;;;;;;21.20;62.43;100668.94;5092058;28;20083;-61
2023/09/05 08:16:34;;;;;;;5.90;2.03;;;;;;;21.31;61.62;100675.44;5091967;28;20040;-60
2023/09/05 08:19:00;;;;;;;2.67;1.70;;;;;;;21.39;61.07;100673.22;5091990;28;20039;-61
2023/09/05 08:21:26;;;;;;;2.72;1.80;;;;;;;21.50;60.23;100668.03;5091562;28;20040;-62
2023/09/05 08:23:52;;;;;;;3.72;1.90;;;;;;;21.56;60.70;100667.09;5092038;28;20044;-60
2023/09/05 08:26:18;;;;;;;4.43;1.85;;;;;;;21.64;61.67;100670.28;5091880;28;20402;-58
2023/09/05 08:28:45;;;;;;;1.98;1.42;;;;;;;21.78;59.98;100670.03;5091892;28;20032;-59
2023/09/05 08:31:11;;;;;;;3.28;1.63;;;;;;;21.87;61.19;100674.06;5091665;28;20032;-61
2023/09/05 08:33:37;;;;;;;1.95;1.45;;;;;;;21.93;59.84;100657.66;5091780;28;20036;-60
2023/09/05 08:36:08;;;;;;;3.28;1.90;;;;;;;22.04;58.39;100661.41;5091771;28;20112;-61
2023/09/05 08:38:33;;;;;;;3.13;2.03;;;;;;;22.13;57.79;100659.19;5091814;28;20068;-61
2023/09/05 08:41:01;;;;;;;3.00;1.70;;;;;;;22.21;57.68;100666.94;5091593;28;20052;-61
2023/09/05 08:43:28;;;;;;;2.50;1.80;;;;;;;22.30;56.36;100661.94;5091769;28;20036;-60
2023/09/05 08:45:54;;;;;;;3.85;1.65;;;;;;;22.34;56.59;100650.38;5091790;28;20039;-60
2023/09/05 08:48:20;;;;;;;3.00;1.80;;;;;;;22.49;55.95;100652.56;5091711;28;20040;-59
2023/09/05 08:50:47;;;;;;;3.88;2.00;;;;;;;22.63;54.16;100655.84;5091368;28;20544;-61
2023/09/05 08:53:15;;;;;;;1.98;1.60;;;;;;;22.74;53.58;100652.22;5091715;28;20056;-61
2023/09/05 08:55:42;;;;;;;4.68;1.88;;;;;;;22.86;52.89;100653.03;5091598;28;20499;-59
2023/09/05 08:58:11;;;;;;;2.22;1.70;;;;;;;22.97;53.93;100649.44;5091787;28;20466;-61
2023/09/05 09:00:37;;;;;;;2.70;1.65;;;;;;;23.08;52.93;100644.97;5091414;28;20081;-60
2023/09/05 09:03:05;;;;;;;3.13;1.70;;;;;;;23.23;52.11;100647.16;5091679;28;20044;-61
2023/09/05 09:05:31;;;;;;;2.50;1.33;;;;;;;23.33;51.98;100650.00;5091505;28;20089;-60
2023/09/05 09:07:57;;;;;;;1.90;1.52;;;;;;;23.43;51.65;100650.19;5092994;28;20044;-59
2023/09/05 09:10:23;;;;;;;3.25;1.45;;;;;;;23.55;51.87;100653.63;5095333;28;20044;-61
2023/09/05 09:12:56;;;;;;;3.85;1.60;;;;;;;23.64;52.27;100651.34;5095471;28;20063;-61
2023/09/05 09:15:26;;;;;;;2.75;1.40;;;;;;;23.79;50.40;100648.00;5095304;28;20040;-60
2023/09/05 09:17:52;;;;;;;2.97;1.50;;;;;;;23.87;49.38;100646.78;5095249;28;20055;-61
2023/09/05 09:20:19;;;;;;;2.75;1.60;;;;;;;24.00;50.09;100649.13;5094988;28;20040;-61
2023/09/05 09:22:50;;;;;;;2.58;1.58;;;;;;;24.10;48.81;100650.06;5095232;28;20032;-61
2023/09/05 09:25:20;;;;;;;2.33;1.55;;;;;;;24.22;48.62;100652.66;5095192;28;20032;-60
2023/09/05 09:27:57;;;;;;;2.42;1.70;;;;;;;24.45;48.44;100650.75;5095037;28;20084;-61
2023/09/05 09:30:24;;;;;;;2.47;1.40;;;;;;;24.53;47.66;100648.44;5094688;28;20024;-61
2023/09/05 09:32:51;;;;;;;3.22;1.50;;;;;;;24.67;47.30;100639.84;5095074;28;20071;-62
2023/09/05 09:35:17;;;;;;;2.47;1.67;;;;;;;24.78;47.12;100636.16;5094935;28;20047;-60
2023/09/05 09:37:45;;;;;;;3.90;1.60;;;;;;;24.96;45.88;100640.38;5094961;28;20067;-62
2023/09/05 09:40:11;;;;;;;2.97;1.70;;;;;;;25.06;46.37;100643.25;5094555;28;20033;-61
2023/09/05 09:42:37;;;;;;;3.83;1.63;;;;;;;25.25;46.42;100628.13;5094870;28;20060;-61
2023/09/05 09:45:05;;;;;;;2.42;1.52;;;;;;;25.35;46.59;100630.91;5094869;28;20059;-61
2023/09/05 09:47:31;;;;;;;2.10;1.40;;;;;;;25.57;44.90;100625.34;5094639;28;20032;-59
2023/09/05 09:49:58;;;;;;;2.35;1.20;;;;;;;25.78;44.27;100625.50;5094408;28;20096;-61
2023/09/05 09:52:24;;;;;;;2.05;1.23;;;;;;;25.88;44.33;100617.34;5094570;28;20039;-61
2023/09/05 09:54:55;;;;;;;2.13;1.65;;;;;;;26.11;43.21;100625.09;5094635;28;20490;-60
2023/09/05 09:57:30;;;;;;;1.98;1.38;;;;;;;26.23;42.75;100617.50;5094556;28;20043;-61
2023/09/05 10:00:00;;;;;;;1.80;1.20;;;;;;;26.51;42.42;100607.22;5094313;28;20032;-62
2023/09/05 10:02:26;;;;;;;2.47;1.50;;;;;;;26.79;43.06;100620.38;5094687;28;20028;-60
2023/09/05 10:04:53;;;;;;;4.28;1.65;;;;;;;27.12;41.79;100618.22;5094436;28;20118;-62
2023/09/05 10:07:19;;;;;;;3.13;1.80;;;;;;;27.52;41.92;100616.56;5094412;28;20040;-61
2023/09/05 10:09:45;;;;;;;2.35;1.23;;;;;;;27.74;39.63;100610.78;5094041;28;20426;-59
2023/09/05 10:12:12;;;;;;;4.10;1.23;;;;;;;28.04;40.02;100616.16;5094182;28;20097;-60
2023/09/05 10:14:40;;;;;;;2.40;1.27;;;;;;;28.35;38.54;100611.34;5094332;28;20039;-60
2023/09/05 10:17:05;;;;;;;2.22;1.30;;;;;;;28.80;38.60;100597.63;5094154;28;20576;-61
2023/09/05 10:19:32;;;;;;;2.65;1.50;;;;;;;29.26;37.82;100606.31;5085345;28;20123;-60
2023/09/05 10:21:59;;;;;;;3.05;1.50;;;;;;;29.38;37.98;100604.00;5084311;28;20051;-62
2023/09/05 10:24:27;;;;;;;2.25;1.40;;;;;;;29.93;36.99;100607.28;5083426;28;20072;-60
2023/09/05 10:26:53;;;;;;;1.92;1.48;;;;;;;30.34;36.25;100598.50;5082596;28;20493;-62
2023/09/05 10:29:44;;;;;;;6.70;1.88;;;;;;;30.68;36.10;100601.06;5084352;28;20043;-62
2023/09/05 10:32:13;;;;;;;2.83;1.63;;;;;;;30.92;35.74;100600.13;5083626;28;20045;-61
2023/09/05 10:35:02;;;;;;;3.08;1.42;;;;;;;31.31;35.75;100595.06;5082112;28;20648;-61
2023/09/05 10:37:39;;;;;;;3.33;1.67;;;;;;;31.04;34.84;100598.53;5083143;28;20028;-62
2023/09/05 10:40:07;;;;;;;4.22;1.75;;;;;;;31.69;33.99;100600.41;5082598;28;20050;-59
2023/09/05 10:42:35;;;;;;;3.20;1.50;;;;;;;32.04;33.47;100596.13;5082611;28;20085;-60
2023/09/05 10:45:21;;;;;;;3.15;1.60;;;;;;;32.01;34.14;100596.72;5084107;28;20487;-62
2023/09/05 10:47:50;;;;;;;2.97;1.85;;;;;;;32.38;33.86;100598.41;5083081;28;20032;-60
2023/09/05 10:50:20;;;;;;;3.15;1.60;;;;;;;32.61;32.63;100599.28;5081614;28;20059;-60
2023/09/05 10:52:50;;;;;;;4.65;1.63;;;;;;;32.71;31.78;100600.94;5090599;28;20047;-60
2023/09/05 10:55:25;;;;;;;3.50;1.80;;;;;;;32.59;32.71;100607.00;5093440;28;20118;-61
2023/09/05 10:57:51;;;;;;;2.33;1.80;;;;;;;32.40;32.65;100598.09;5093394;28;20047;-61
2023/09/05 11:00:17;;;;;;;2.80;1.90;;;;;;;32.91;32.43;100599.66;5093271;28;20040;-62
2023/09/05 11:02:45;;;;;;;2.78;1.50;;;;;;;32.99;32.31;100590.63;5093353;28;20277;-61
2023/09/05 11:05:20;;;;;;;2.10;1.60;;;;;;;32.96;31.75;100588.50;5093171;28;20024;-61
2023/09/05 11:07:50;;;;;;;2.97;1.80;;;;;;;33.11;31.69;100584.53;5093256;28;20044;-60
2023/09/05 11:10:37;;;;;;;3.90;1.63;;;;;;;33.47;30.94;100578.91;5093232;28;20036;-61
2023/09/05 11:13:10;;;;;;;3.08;1.45;;;;;;;33.65;31.29;100580.59;5093306;28;20097;-61
2023/09/05 11:15:37;;;;;;;3.92;1.80;;;;;;;33.89;30.28;100584.88;5093027;28;20130;-60
2023/09/05 11:18:05;;;;;;;2.67;1.75;;;;;;;33.82;30.82;100587.31;5092936;28;20038;-61
2023/09/05 11:20:39;;;;;;;3.25;1.48;;;;;;;33.77;31.40;100579.97;5092588;28;20042;-61
2023/09/05 11:23:18;;;;;;;3.08;1.73;;;;;;;34.68;29.89;100581.91;5092971;28;20506;-61
2023/09/05 11:25:50;;;;;;;5.82;1.67;;;;;;;34.24;29.49;100577.50;5092887;28;20032;-61
2023/09/05 11:28:16;;;;;;;3.53;1.88;;;;;;;34.47;29.33;100581.75;5092966;28;20028;-61
2023/09/05 11:30:46;;;;;;;2.47;1.50;;;;;;;34.21;28.90;100578.94;5091859;28;20111;-60
2023/09/05 11:33:14;;;;;;;2.08;1.63;;;;;;;34.78;29.06;100576.03;5092729;28;20036;-61
2023/09/05 11:35:44;;;;;;;2.33;1.48;;;;;;;34.63;28.94;100573.00;5092527;28;20036;-61
2023/09/05 11:38:10;;;;;;;2.60;1.40;;;;;;;35.03;29.22;100565.28;5092690;28;20619;-61
2023/09/05 11:40:37;;;;;;;3.28;1.50;;;;;;;35.29;28.38;100560.47;5092368;28;20618;-61
2023/09/05 11:43:11;;;;;;;2.72;1.60;;;;;;;35.17;28.42;100546.53;5092522;28;20497;-61
2023/09/05 11:45:37;;;;;;;1.85;1.40;;;;;;;35.02;28.75;100545.09;5092559;28;20046;-61
2023/09/05 11:48:14;;;;;;;2.03;1.50;;;;;;;35.60;27.88;100546.38;5092451;28;20035;-61
2023/09/05 11:50:43;;;;;;;3.08;1.60;;;;;;;35.41;27.94;100539.56;5092155;28;20036;-61
2023/09/05 11:53:11;;;;;;;1.80;1.42;;;;;;;35.48;27.92;100535.19;5092408;28;20551;-59
2023/09/05 11:55:37;;;;;;;2.13;1.30;;;;;;;35.87;27.49;100531.19;5092274;28;20073;-60
2023/09/05 11:58:05;;;;;;;;;;;;;;;36.23;26.97;100529.81;5081311;28;20440;-61
2023/09/05 12:00:32;;;;;;;2.28;1.40;;;;;;;36.35;26.99;100527.09;5082614;28;19923;-60
2023/09/05 12:03:02;;;;;;;2.25;1.70;;;;;;;36.25;26.46;100524.72;5081598;28;20028;-61
2023/09/05 12:05:28;;;;;;;2.35;1.58;;;;;;;35.76;27.56;100524.41;5079530;28;20138;-62
2023/09/05 12:07:55;;;;;;;2.28;1.55;;;;;;;36.09;27.03;100512.66;5080446;28;20035;-61
2023/09/05 12:10:26;;;;;;;2.63;1.50;;;;;;;35.08;27.90;100510.56;5079509;28;20040;-62
2023/09/05 12:13:02;;;;;;;2.35;1.52;;;;;;;36.33;26.98;100507.22;5081204;28;20119;-61
2023/09/05 12:15:35;;;;;;;3.20;1.30;;;;;;;35.89;27.22;100498.41;5081754;28;20081;-62
2023/09/05 12:18:04;;;;;;;2.80;1.30;;;;;;;36.59;26.09;100492.31;5080744;28;20032;-62
2023/09/05 12:20:33;;;;;;;2.28;1.27;;;;;;;36.90;26.48;100498.19;5080773;28;20379;-62
2023/09/05 12:22:59;;;;;;;2.65;1.40;;;;;;;36.85;25.43;100494.81;5081008;28;20036;-62
2023/09/05 12:25:28;;;;;;;3.08;1.30;;;;;;;35.12;27.61;100493.28;5082575;28;20039;-61
2023/09/05 12:27:57;;;;;;;3.40;1.50;;;;;;;36.26;26.25;100493.09;5081456;28;20411;-60
2023/09/05 12:30:32;;;;;;;1.73;1.10;;;;;;;35.95;26.24;100487.16;5080173;28;20507;-60
2023/09/05 12:33:01;;;;;;;3.83;1.35;;;;;;;35.92;27.33;100483.09;5081033;28;20031;-61
2023/09/05 12:35:29;;;;;;;2.33;1.40;;;;;;;36.49;25.30;100487.19;5082327;28;20034;-60
2023/09/05 12:37:55;;;;;;;3.10;1.50;;;;;;;36.78;24.85;100478.72;5080245;28;20040;-59
2023/09/05 12:40:23;;;;;;;2.38;1.45;;;;;;;35.73;26.82;100468.84;5080665;28;20032;-61
2023/09/05 12:42:49;;;;;;;2.30;1.45;;;;;;;36.48;26.03;100482.81;5081885;28;20111;-60
2023/09/05 12:45:15;;;;;;;;;;;;;;;37.10;25.18;100481.78;5085045;28;20044;-60
2023/09/05 12:47:40;;;;;;;2.08;1.13;;;;;;;37.18;25.79;100481.69;5084298;28;19924;-61
2023/09/05 12:50:12;;;;;;;4.00;1.40;;;;;;;36.95;26.23;100480.50;5068339;28;20131;-62
2023/09/05 12:52:44;;;;;;;4.07;1.35;;;;;;;37.09;25.26;100480.16;5086073;28;20499;-61
2023/09/05 12:55:11;;;;;;;2.17;1.25;;;;;;;37.10;24.97;100476.22;5085343;28;20024;-62
2023/09/05 12:57:41;;;;;;;1.23;1.13;;;;;;;37.53;24.89;100475.66;5084556;28;20033;-61
2023/09/05 13:00:11;;;;;;;1.67;1.20;;;;;;;36.84;25.28;100470.97;5082761;28;20438;-62
2023/09/05 13:02:37;;;;;;;2.17;1.40;;;;;;;37.10;25.42;100477.03;5083177;28;20051;-62
2023/09/05 13:05:03;;;;;;;;;;;;;;;37.51;25.14;100466.09;5086456;28;20043;-62
2023/09/05 13:07:28;;;;;;;;;;;;;;;36.52;25.44;100469.88;5084760;28;19920;-62
2023/09/05 13:09:54;;;;;;;1.42;1.08;;;;;;;37.01;24.42;100464.44;5084506;28;19916;-62
2023/09/05 13:12:19;;;;;;;2.30;1.40;;;;;;;37.41;24.46;100461.78;5085767;28;20067;-62
2023/09/05 13:14:48;;;;;;;2.57;1.13;;;;;;;37.44;24.04;100461.91;5083044;28;20544;-62
2023/09/05 13:17:14;;;;;;;1.88;1.23;;;;;;;37.16;23.57;100458.19;5085481;28;20612;-62
2023/09/05 13:19:40;;;;;;;2.13;1.20;;;;;;;37.43;23.86;100459.47;5083624;28;20036;-62
2023/09/05 13:22:06;;;;;;;1.67;1.10;;;;;;;37.51;23.67;100454.97;5083666;28;20028;-60
2023/09/05 13:24:32;;;;;;;2.55;1.30;;;;;;;36.95;23.92;100441.66;5085287;28;20415;-62
2023/09/05 13:26:59;;;;;;;2.20;1.03;;;;;;;37.16;24.14;100441.53;5083388;28;20047;-62
2023/09/05 13:29:24;;;;;;;3.35;1.27;;;;;;;37.68;24.40;100449.13;5075231;28;20531;-62
2023/09/05 13:31:50;;;;;;;1.83;1.30;;;;;;;36.90;24.43;100437.13;5084845;28;20072;-62
2023/09/05 13:34:16;;;;;;;1.17;1.08;;;;;;;37.68;24.57;100449.13;5074238;28;20111;-62
2023/09/05 13:36:41;;;;;;;1.77;1.30;;;;;;;37.89;24.20;100449.00;5084848;28;20524;-59
2023/09/05 13:39:08;;;;;;;2.03;1.13;;;;;;;38.09;23.52;100438.84;5084508;28;20533;-62
2023/09/05 13:41:33;;;;;;;2.50;1.23;;;;;;;38.04;23.06;100441.88;5083166;28;20153;-62
2023/09/05 13:43:59;;;;;;;2.73;1.20;;;;;;;37.65;23.65;100441.50;5083908;28;20117;-62
2023/09/05 13:46:24;;;;;;;1.83;1.20;;;;;;;37.74;22.50;100442.16;5084005;28;20302;-61
2023/09/05 13:48:50;;;;;;;2.60;1.40;;;;;;;37.29;23.19;100436.78;5065630;28;20107;-61
2023/09/05 13:51:21;;;;;;;1.73;1.23;;;;;;;37.05;23.83;100435.66;5084974;28;20035;-60
2023/09/05 13:53:52;;;;;;;2.80;1.08;;;;;;;36.86;24.29;100429.81;5067433;28;20138;-62
2023/09/05 13:56:18;;;;;;;2.85;1.30;;;;;;;36.03;24.16;100430.84;5081887;28;20107;-62
2023/09/05 13:58:44;;;;;;;1.20;0.90;;;;;;;35.68;25.04;100424.75;5084214;28;20027;-62
2023/09/05 14:01:09;;;;;;;1.50;1.20;;;;;;;34.89;26.10;100420.78;5051201;28;20034;-62
2023/09/05 14:03:34;;;;;;;2.63;1.30;;;;;;;34.33;27.01;100415.22;5082825;28;20115;-61
2023/09/05 14:06:00;;;;;;;2.87;1.23;;;;;;;33.87;27.22;100415.88;5084607;28;20050;-60
2023/09/05 14:08:26;;;;;;;1.90;1.27;;;;;;;32.93;28.30;100416.19;5083732;28;20097;-62
2023/09/05 14:10:52;;;;;;;2.88;1.17;;;;;;;32.87;28.96;100416.66;5082671;28;20498;-62
2023/09/05 14:13:18;;;;;;;1.67;1.10;;;;;;;32.63;28.86;100404.00;5079059;28;20044;-61
2023/09/05 14:15:44;;;;;;;2.80;1.30;;;;;;;32.34;30.39;100406.41;5082445;28;20024;-63
2023/09/05 14:18:12;;;;;;;5.03;1.30;;;;;;;32.24;29.78;100415.75;5084187;28;20039;-61
2023/09/05 14:20:41;;;;;;;3.40;1.17;;;;;;;31.82;31.38;100401.34;5093457;28;20048;-62
2023/09/05 14:23:07;;;;;;;2.13;1.23;;;;;;;31.69;31.85;100401.34;5094018;28;20048;-62
2023/09/05 14:25:33;;;;;;;2.72;1.35;;;;;;;31.45;32.69;100388.66;5093990;28;20068;-62
2023/09/05 14:27:59;;;;;;;3.88;1.40;;;;;;;31.51;31.63;100401.19;5093874;28;20044;-62
2023/09/05 14:30:25;;;;;;;2.20;1.47;;;;;;;31.41;32.07;100390.41;5093720;28;20096;-62
2023/09/05 14:32:50;;;;;;;2.58;1.75;;;;;;;31.13;32.55;100391.53;5093876;28;20077;-62
2023/09/05 14:35:16;;;;;;;1.50;1.10;;;;;;;30.74;33.49;100379.94;5093837;28;20067;-62
2023/09/05 14:37:41;;;;;;;2.30;1.30;;;;;;;30.68;33.37;100389.38;5093807;28;20028;-62
2023/09/05 14:40:07;;;;;;;2.53;1.30;;;;;;;30.80;32.88;100380.66;5093520;28;20044;-61
2023/09/05 14:42:33;;;;;;;1.90;1.27;;;;;;;30.79;33.11;100388.09;5093716;28;20028;-62
2023/09/05 14:44:59;;;;;;;3.05;1.60;;;;;;;30.65;32.59;100383.66;5093587;28;20101;-62
2023/09/05 14:47:25;;;;;;;1.57;1.10;;;;;;;30.42;32.88;100386.25;5092495;28;20040;-62
2023/09/05 14:49:50;;;;;;;1.85;1.20;;;;;;;30.53;32.87;100375.91;5093287;28;20495;-60
2023/09/05 14:52:20;;;;;;;4.50;1.27;;;;;;;30.54;32.80;100383.03;5093560;28;20031;-61
2023/09/05 14:54:46;;;;;;;3.47;1.33;;;;;;;30.47;33.37;100385.38;5092203;28;20472;-60
2023/09/05 14:57:11;;;;;;;1.90;1.30;;;;;;;30.39;33.70;100378.63;5092107;28;20082;-61
2023/09/05 14:59:37;;;;;;;2.45;1.40;;;;;;;30.25;34.30;100378.56;5092910;28;20044;-62
2023/09/05 15:02:02;;;;;;;3.10;1.25;;;;;;;30.26;34.59;100376.66;5093352;28;20032;-62
2023/09/05 15:04:28;;;;;;;1.80;1.40;;;;;;;30.13;35.04;100378.25;5093022;28;20379;-61
2023/09/05 15:06:53;;;;;;;2.05;1.35;;;;;;;30.14;34.65;100368.91;5092582;28;20139;-61
2023/09/05 15:09:20;;;;;;;1.73;1.20;;;;;;;30.06;34.59;100374.22;5092861;28;20040;-61
2023/09/05 15:11:46;;;;;;;5.22;1.40;;;;;;;30.04;34.78;100368.22;5093024;28;20032;-62
2023/09/05 15:14:11;;;;;;;3.05;1.30;;;;;;;30.07;34.97;100378.63;5093042;28;20040;-62
2023/09/05 15:16:37;;;;;;;2.20;1.17;;;;;;;30.02;34.77;100382.25;5093042;28;20169;-62
2023/09/05 15:19:02;;;;;;;2.83;1.30;;;;;;;30.00;34.94;100379.00;5092957;28;20491;-59
2023/09/05 15:21:28;;;;;;;1.40;1.25;;;;;;;29.88;35.64;100371.22;5092666;28;20039;-60
2023/09/05 15:23:53;;;;;;;1.20;0.95;;;;;;;29.79;35.87;100370.25;5092898;28;20525;-61
2023/09/05 15:26:18;;;;;;;1.92;1.30;;;;;;;29.78;35.96;100365.88;5092771;28;20036;-61
2023/09/05 15:28:44;;;;;;;1.65;1.10;;;;;;;29.80;36.06;100371.06;5092734;28;20044;-60
2023/09/05 15:31:09;;;;;;;1.40;1.00;;;;;;;29.79;35.77;100380.41;5092508;28;20044;-61
2023/09/05 15:33:35;;;;;;;1.75;1.27;;;;;;;29.70;35.78;100374.78;5092766;28;20077;-60
2023/09/05 15:36:00;;;;;;;1.88;1.30;;;;;;;29.67;35.53;100369.91;5092534;28;20036;-61
2023/09/05 15:38:27;;;;;;;3.13;1.30;;;;;;;29.55;36.21;100375.03;5092727;28;20031;-61
2023/09/05 15:40:52;;;;;;;2.97;1.30;;;;;;;29.65;36.93;100372.94;5092353;28;20036;-60
2023/09/05 15:43:18;;;;;;;1.38;1.20;;;;;;;29.48;36.77;100374.53;5092576;28;20043;-61
2023/09/05 15:45:49;;;;;;;1.83;1.20;;;;;;;29.39;36.64;100374.38;5092681;28;20031;-62
2023/09/05 15:48:15;;;;;;;2.13;1.10;;;;;;;29.38;36.55;100378.22;5092387;28;20039;-62